sensor_id;sensor_type;location;lat;lon;timestamp;pressure;altitude;pressure_sealevel;temperature;humidity
9695;BME280;4690;52.422;13.486;2022-09-09T00:06:24;100775.22;;;16.46;88.62
9695;BME280;4690;52.422;13.486;2022-09-09T00:09:17;100777.41;;;16.44;88.88
9695;BME280;4690;52.422;13.486;2022-09-09T00:12:04;100777.41;;;16.44;89.09
9695;BME280;4690;52.422;13.486;2022-09-09T00:14:51;100774.41;;;16.45;88.95
9695;BME280;4690;52.422;13.486;2022-09-09T00:17:41;100776.00;;;16.41;88.84
9695;BME280;4690;52.422;13.486;2022-09-09T00:20:28;100770.75;;;16.40;88.91
9695;BME280;4690;52.422;13.486;2022-09-09T00:23:29;100771.84;;;16.39;89.00
9695;BME280;4690;52.422;13.486;2022-09-09T00:29:43;100765.44;;;16.33;89.20
9695;BME280;4690;52.422;13.486;2022-09-09T00:32:17;100766.00;;;16.35;88.68
9695;BME280;4690;52.422;13.486;2022-09-09T00:35:16;100752.72;;;16.32;88.97
9695;BME280;4690;52.422;13.486;2022-09-09T00:37:46;100751.91;;;16.31;88.79
9695;BME280;4690;52.422;13.486;2022-09-09T00:40:34;100748.56;;;16.29;88.83
9695;BME280;4690;52.422;13.486;2022-09-09T00:43:30;100756.56;;;16.26;88.74
9695;BME280;4690;52.422;13.486;2022-09-09T00:49:15;100750.16;;;16.20;88.60
9695;BME280;4690;52.422;13.486;2022-09-09T00:55:00;100750.94;;;16.16;88.34
9695;BME280;4690;52.422;13.486;2022-09-09T00:57:35;100762.56;;;16.18;88.41
9695;BME280;4690;52.422;13.486;2022-09-09T01:02:57;100754.28;;;16.18;87.94
9695;BME280;4690;52.422;13.486;2022-09-09T01:12:14;100771.28;;;16.04;88.05
9695;BME280;4690;52.422;13.486;2022-09-09T01:14:49;100769.06;;;16.01;88.06
9695;BME280;4690;52.422;13.486;2022-09-09T01:17:24;100773.22;;;16.04;87.83
9695;BME280;4690;52.422;13.486;2022-09-09T01:28:50;100765.09;;;15.92;87.61
9695;BME280;4690;52.422;13.486;2022-09-09T01:34:19;100765.00;;;15.82;87.84
9695;BME280;4690;52.422;13.486;2022-09-09T01:39:36;100772.69;;;15.75;88.14
9695;BME280;4690;52.422;13.486;2022-09-09T01:42:06;100761.34;;;15.76;88.31
9695;BME280;4690;52.422;13.486;2022-09-09T01:44:35;100758.59;;;15.76;88.19
9695;BME280;4690;52.422;13.486;2022-09-09T01:47:02;100758.59;;;15.76;88.37
9695;BME280;4690;52.422;13.486;2022-09-09T01:49:28;100761.69;;;15.80;88.29
9695;BME280;4690;52.422;13.486;2022-09-09T01:51:56;100756.16;;;15.80;88.19
9695;BME280;4690;52.422;13.486;2022-09-09T01:54:29;100755.81;;;15.76;88.07
9695;BME280;4690;52.422;13.486;2022-09-09T01:59:53;100769.25;;;15.67;88.25
9695;BME280;4690;52.422;13.486;2022-09-09T02:02:39;100770.88;;;15.63;88.12
9695;BME280;4690;52.422;13.486;2022-09-09T02:05:34;100770.56;;;15.60;88.16
9695;BME280;4690;52.422;13.486;2022-09-09T02:08:31;100771.63;;;15.59;88.39
9695;BME280;4690;52.422;13.486;2022-09-09T02:11:14;100773.56;;;15.58;88.14
9695;BME280;4690;52.422;13.486;2022-09-09T02:13:43;100783.78;;;15.58;88.03
9695;BME280;4690;52.422;13.486;2022-09-09T02:16:26;100772.69;;;15.53;88.14
9695;BME280;4690;52.422;13.486;2022-09-09T02:19:31;100766.34;;;15.52;88.26
9695;BME280;4690;52.422;13.486;2022-09-09T02:22:00;100778.78;;;15.55;88.08
9695;BME280;4690;52.422;13.486;2022-09-09T02:24:29;100763.25;;;15.49;88.24
9695;BME280;4690;52.422;13.486;2022-09-09T02:26:58;100770.16;;;15.51;88.49
9695;BME280;4690;52.422;13.486;2022-09-09T02:29:33;100770.44;;;15.50;88.38
9695;BME280;4690;52.422;13.486;2022-09-09T02:32:05;100774.31;;;15.49;88.51
9695;BME280;4690;52.422;13.486;2022-09-09T02:34:38;100775.97;;;15.50;88.56
9695;BME280;4690;52.422;13.486;2022-09-09T02:37:09;100772.94;;;15.51;88.49
9695;BME280;4690;52.422;13.486;2022-09-09T02:39:36;100764.91;;;15.50;88.50
9695;BME280;4690;52.422;13.486;2022-09-09T02:42:04;100771.03;;;15.52;88.40
9695;BME280;4690;52.422;13.486;2022-09-09T02:44:30;100764.09;;;15.49;88.24
9695;BME280;4690;52.422;13.486;2022-09-09T02:50:13;100763.19;;;15.43;88.62
9695;BME280;4690;52.422;13.486;2022-09-09T02:53:09;100765.38;;;15.41;88.64
9695;BME280;4690;52.422;13.486;2022-09-09T02:55:58;100766.47;;;15.40;88.71
9695;BME280;4690;52.422;13.486;2022-09-09T02:58:27;100772.00;;;15.40;88.88
9695;BME280;4690;52.422;13.486;2022-09-09T03:00:53;100768.13;;;15.41;88.88
9695;BME280;4690;52.422;13.486;2022-09-09T03:03:19;100775.31;;;15.42;88.93
9695;BME280;4690;52.422;13.486;2022-09-09T03:05:46;100775.06;;;15.44;88.88
9695;BME280;4690;52.422;13.486;2022-09-09T03:08:13;100779.25;;;15.46;88.79
9695;BME280;4690;52.422;13.486;2022-09-09T03:10:39;100778.72;;;15.50;88.60
9695;BME280;4690;52.422;13.486;2022-09-09T03:13:05;100778.72;;;15.50;88.46
9695;BME280;4690;52.422;13.486;2022-09-09T03:15:32;100784.19;;;15.44;88.54
9695;BME280;4690;52.422;13.486;2022-09-09T03:17:59;100784.72;;;15.41;88.61
9695;BME280;4690;52.422;13.486;2022-09-09T03:20:28;100791.06;;;15.42;88.78
9695;BME280;4690;52.422;13.486;2022-09-09T03:22:54;100790.22;;;15.41;88.35
9695;BME280;4690;52.422;13.486;2022-09-09T03:25:22;100795.16;;;15.39;88.61
9695;BME280;4690;52.422;13.486;2022-09-09T03:27:53;100799.88;;;15.39;88.64
9695;BME280;4690;52.422;13.486;2022-09-09T03:30:26;100795.69;;;15.36;88.59
9695;BME280;4690;52.422;13.486;2022-09-09T03:32:52;100794.34;;;15.39;88.53
9695;BME280;4690;52.422;13.486;2022-09-09T03:35:18;100793.19;;;15.35;88.53
9695;BME280;4690;52.422;13.486;2022-09-09T03:37:44;100792.84;;;15.31;88.48
9695;BME280;4690;52.422;13.486;2022-09-09T03:40:11;100791.78;;;15.32;88.51
9695;BME280;4690;52.422;13.486;2022-09-09T03:42:37;100792.31;;;15.29;88.75
9695;BME280;4690;52.422;13.486;2022-09-09T03:45:06;100785.38;;;15.27;88.79
9695;BME280;4690;52.422;13.486;2022-09-09T03:47:34;100793.88;;;15.25;88.82
9695;BME280;4690;52.422;13.486;2022-09-09T03:50:00;100793.31;;;15.23;88.91
9695;BME280;4690;52.422;13.486;2022-09-09T03:52:26;100798.59;;;15.24;89.11
9695;BME280;4690;52.422;13.486;2022-09-09T03:54:53;100789.19;;;15.25;89.13
9695;BME280;4690;52.422;13.486;2022-09-09T03:57:20;100784.53;;;15.26;89.29
9695;BME280;4690;52.422;13.486;2022-09-09T03:59:47;100780.91;;;15.25;89.03
9695;BME280;4690;52.422;13.486;2022-09-09T04:02:12;100789.47;;;15.24;89.09
9695;BME280;4690;52.422;13.486;2022-09-09T04:04:38;100789.72;;;15.22;89.09
9695;BME280;4690;52.422;13.486;2022-09-09T04:07:04;100787.22;;;15.21;88.97
9695;BME280;4690;52.422;13.486;2022-09-09T04:09:32;100783.63;;;15.20;88.90
9695;BME280;4690;52.422;13.486;2022-09-09T04:11:58;100785.97;;;15.12;88.79
9695;BME280;4690;52.422;13.486;2022-09-09T04:14:24;100790.59;;;15.06;88.92
9695;BME280;4690;52.422;13.486;2022-09-09T04:16:54;100791.69;;;15.05;88.90
9695;BME280;4690;52.422;13.486;2022-09-09T04:19:21;100798.31;;;15.04;88.87
9695;BME280;4690;52.422;13.486;2022-09-09T04:21:47;100797.50;;;15.04;88.90
9695;BME280;4690;52.422;13.486;2022-09-09T04:24:15;100809.38;;;15.04;88.50
9695;BME280;4690;52.422;13.486;2022-09-09T04:26:41;100806.78;;;14.97;88.55
9695;BME280;4690;52.422;13.486;2022-09-09T04:29:07;100799.84;;;14.95;88.53
9695;BME280;4690;52.422;13.486;2022-09-09T04:31:33;100814.22;;;14.97;88.87
9695;BME280;4690;52.422;13.486;2022-09-09T04:33:59;100805.69;;;14.98;88.80
9695;BME280;4690;52.422;13.486;2022-09-09T04:36:33;100811.78;;;15.00;88.80
9695;BME280;4690;52.422;13.486;2022-09-09T04:38:59;100809.38;;;15.04;88.61
9695;BME280;4690;52.422;13.486;2022-09-09T04:41:25;100816.22;;;15.01;88.59
9695;BME280;4690;52.422;13.486;2022-09-09T04:43:50;100812.03;;;14.99;88.58
9695;BME280;4690;52.422;13.486;2022-09-09T04:46:20;100824.19;;;14.98;88.38
9695;BME280;4690;52.422;13.486;2022-09-09T04:48:46;100821.06;;;14.94;88.63
9695;BME280;4690;52.422;13.486;2022-09-09T04:51:13;100823.84;;;14.94;88.89
9695;BME280;4690;52.422;13.486;2022-09-09T04:53:39;100829.94;;;14.96;88.69
9695;BME280;4690;52.422;13.486;2022-09-09T04:56:11;100829.72;;;14.98;88.89
9695;BME280;4690;52.422;13.486;2022-09-09T04:58:38;100828.09;;;15.02;88.89
9695;BME280;4690;52.422;13.486;2022-09-09T05:01:16;100824.81;;;15.05;88.92
9695;BME280;4690;52.422;13.486;2022-09-09T05:03:44;100822.66;;;15.07;88.90
9695;BME280;4690;52.422;13.486;2022-09-09T05:06:16;100823.72;;;15.06;88.99
9695;BME280;4690;52.422;13.486;2022-09-09T05:08:44;100824.59;;;15.07;89.02
9695;BME280;4690;52.422;13.486;2022-09-09T05:11:19;100836.19;;;15.09;89.09
9695;BME280;4690;52.422;13.486;2022-09-09T05:13:45;100834.84;;;15.11;89.47
9695;BME280;4690;52.422;13.486;2022-09-09T05:16:13;100835.75;;;15.17;89.44
9695;BME280;4690;52.422;13.486;2022-09-09T05:18:40;100829.19;;;15.23;89.52
9695;BME280;4690;52.422;13.486;2022-09-09T05:21:07;100832.84;;;15.29;89.48
9695;BME280;4690;52.422;13.486;2022-09-09T05:23:34;100820.81;;;15.35;89.48
9695;BME280;4690;52.422;13.486;2022-09-09T05:26:00;100832.41;;;15.37;89.63
9695;BME280;4690;52.422;13.486;2022-09-09T05:28:27;100840.53;;;15.43;89.79
9695;BME280;4690;52.422;13.486;2022-09-09T05:31:02;100828.38;;;15.44;89.84
9695;BME280;4690;52.422;13.486;2022-09-09T05:33:34;100827.69;;;15.54;90.13
9695;BME280;4690;52.422;13.486;2022-09-09T05:36:13;100831.81;;;15.57;90.10
9695;BME280;4690;52.422;13.486;2022-09-09T05:38:40;100833.50;;;15.58;90.86
9695;BME280;4690;52.422;13.486;2022-09-09T05:41:07;100827.34;;;15.73;91.13
9695;BME280;4690;52.422;13.486;2022-09-09T05:43:33;100829.19;;;15.89;90.83
9695;BME280;4690;52.422;13.486;2022-09-09T05:46:08;100833.97;;;15.99;90.88
9695;BME280;4690;52.422;13.486;2022-09-09T05:48:40;100837.16;;;16.12;90.75
9695;BME280;4690;52.422;13.486;2022-09-09T05:51:10;100834.22;;;16.24;90.87
9695;BME280;4690;52.422;13.486;2022-09-09T05:53:41;100832.41;;;16.35;90.68
9695;BME280;4690;52.422;13.486;2022-09-09T05:56:18;100837.19;;;16.45;90.89
9695;BME280;4690;52.422;13.486;2022-09-09T05:58:45;100841.97;;;16.54;90.23
9695;BME280;4690;52.422;13.486;2022-09-09T06:01:27;100842.59;;;16.67;90.52
9695;BME280;4690;52.422;13.486;2022-09-09T06:03:54;100847.72;;;16.80;89.86
9695;BME280;4690;52.422;13.486;2022-09-09T06:06:26;100851.03;;;16.77;88.96
9695;BME280;4690;52.422;13.486;2022-09-09T06:08:55;100854.09;;;16.80;89.15
9695;BME280;4690;52.422;13.486;2022-09-09T06:11:28;100853.34;;;16.90;89.29
9695;BME280;4690;52.422;13.486;2022-09-09T06:13:57;100851.47;;;17.06;88.76
9695;BME280;4690;52.422;13.486;2022-09-09T06:16:25;100856.84;;;17.23;88.75
9695;BME280;4690;52.422;13.486;2022-09-09T06:18:53;100848.09;;;17.41;88.33
9695;BME280;4690;52.422;13.486;2022-09-09T06:21:29;100852.56;;;17.53;86.69
9695;BME280;4690;52.422;13.486;2022-09-09T06:23:56;100848.22;;;17.72;86.44
9695;BME280;4690;52.422;13.486;2022-09-09T06:28:53;100851.91;;;17.88;84.00
9695;BME280;4690;52.422;13.486;2022-09-09T06:31:22;100855.28;;;18.05;84.58
9695;BME280;4690;52.422;13.486;2022-09-09T06:33:51;100855.03;;;18.37;84.04
9695;BME280;4690;52.422;13.486;2022-09-09T06:36:26;100858.06;;;18.41;82.28
9695;BME280;4690;52.422;13.486;2022-09-09T06:38:53;100854.19;;;18.32;81.88
9695;BME280;4690;52.422;13.486;2022-09-09T06:41:22;100869.75;;;18.48;83.14
9695;BME280;4690;52.422;13.486;2022-09-09T06:43:48;100866.13;;;18.73;82.77
9695;BME280;4690;52.422;13.486;2022-09-09T06:46:21;100860.28;;;19.11;83.31
9695;BME280;4690;52.422;13.486;2022-09-09T06:48:52;100856.03;;;19.34;80.71
9695;BME280;4690;52.422;13.486;2022-09-09T06:51:23;100862.16;;;19.41;77.72
9695;BME280;4690;52.422;13.486;2022-09-09T06:53:56;100864.63;;;19.47;78.54
9695;BME280;4690;52.422;13.486;2022-09-09T06:56:26;100868.09;;;19.84;78.16
9695;BME280;4690;52.422;13.486;2022-09-09T06:58:56;100862.38;;;20.09;77.58
9695;BME280;4690;52.422;13.486;2022-09-09T07:01:28;100858.13;;;20.27;77.59
9695;BME280;4690;52.422;13.486;2022-09-09T07:03:56;100863.19;;;20.59;78.24
9695;BME280;4690;52.422;13.486;2022-09-09T07:06:28;100852.94;;;20.84;77.04
9695;BME280;4690;52.422;13.486;2022-09-09T07:08:57;100863.97;;;20.94;73.67
9695;BME280;4690;52.422;13.486;2022-09-09T07:11:27;100866.22;;;20.92;73.72
9695;BME280;4690;52.422;13.486;2022-09-09T07:13:54;100865.25;;;21.07;73.11
9695;BME280;4690;52.422;13.486;2022-09-09T07:16:22;100865.25;;;21.07;72.84
9695;BME280;4690;52.422;13.486;2022-09-09T07:18:50;100864.50;;;20.96;73.01
9695;BME280;4690;52.422;13.486;2022-09-09T07:21:17;100865.00;;;21.03;72.88
9695;BME280;4690;52.422;13.486;2022-09-09T07:23:43;100859.84;;;21.16;73.79
9695;BME280;4690;52.422;13.486;2022-09-09T07:26:15;100860.81;;;21.30;72.08
9695;BME280;4690;52.422;13.486;2022-09-09T07:28:42;100869.09;;;21.40;71.25
9695;BME280;4690;52.422;13.486;2022-09-09T07:31:21;100869.41;;;21.34;70.69
9695;BME280;4690;52.422;13.486;2022-09-09T07:33:48;100870.00;;;21.31;71.54
9695;BME280;4690;52.422;13.486;2022-09-09T07:36:22;100864.66;;;21.34;72.78
9695;BME280;4690;52.422;13.486;2022-09-09T07:38:58;100872.50;;;21.56;70.94
9695;BME280;4690;52.422;13.486;2022-09-09T07:41:31;100869.59;;;21.42;69.35
9695;BME280;4690;52.422;13.486;2022-09-09T07:44:03;100875.97;;;21.48;70.38
9695;BME280;4690;52.422;13.486;2022-09-09T07:46:29;100875.63;;;21.74;70.12
9695;BME280;4690;52.422;13.486;2022-09-09T07:48:56;100877.09;;;21.90;68.48
9695;BME280;4690;52.422;13.486;2022-09-09T07:51:28;100884.28;;;21.96;68.64
9695;BME280;4690;52.422;13.486;2022-09-09T07:54:00;100877.34;;;21.93;69.63
9695;BME280;4690;52.422;13.486;2022-09-09T07:56:29;100887.38;;;21.94;70.68
9695;BME280;4690;52.422;13.486;2022-09-09T07:58:56;100881.69;;;21.81;66.46
9695;BME280;4690;52.422;13.486;2022-09-09T08:01:38;100884.59;;;21.94;66.05
9695;BME280;4690;52.422;13.486;2022-09-09T08:04:17;100883.06;;;21.35;65.63
9695;BME280;4690;52.422;13.486;2022-09-09T08:06:50;100891.16;;;21.37;66.02
9695;BME280;4690;52.422;13.486;2022-09-09T08:09:19;100893.94;;;21.61;68.44
9695;BME280;4690;52.422;13.486;2022-09-09T08:11:45;100891.88;;;21.47;65.71
9695;BME280;4690;52.422;13.486;2022-09-09T08:14:12;100902.38;;;21.56;66.25
9695;BME280;4690;52.422;13.486;2022-09-09T08:16:44;100902.69;;;21.54;67.38
9695;BME280;4690;52.422;13.486;2022-09-09T08:19:11;100901.69;;;21.40;66.31
9695;BME280;4690;52.422;13.486;2022-09-09T08:21:39;100905.88;;;21.66;67.43
9695;BME280;4690;52.422;13.486;2022-09-09T08:24:07;100895.81;;;21.89;67.01
9695;BME280;4690;52.422;13.486;2022-09-09T08:26:46;100881.47;;;21.96;65.39
9695;BME280;4690;52.422;13.486;2022-09-09T08:29:13;100895.84;;;22.08;64.73
9695;BME280;4690;52.422;13.486;2022-09-09T08:31:46;100901.47;;;22.27;65.30
9695;BME280;4690;52.422;13.486;2022-09-09T08:34:12;100905.91;;;22.28;64.79
9695;BME280;4690;52.422;13.486;2022-09-09T08:36:44;100905.81;;;22.14;64.07
9695;BME280;4690;52.422;13.486;2022-09-09T08:39:13;100902.97;;;21.96;64.57
9695;BME280;4690;52.422;13.486;2022-09-09T08:44:41;100908.06;;;21.45;66.80
9695;BME280;4690;52.422;13.486;2022-09-09T08:50:30;100898.44;;;21.03;67.04
9695;BME280;4690;52.422;13.486;2022-09-09T08:53:15;100898.91;;;20.81;67.75
9695;BME280;4690;52.422;13.486;2022-09-09T08:55:59;100910.06;;;20.81;67.97
9695;BME280;4690;52.422;13.486;2022-09-09T08:58:30;100903.84;;;20.95;69.36
9695;BME280;4690;52.422;13.486;2022-09-09T09:04:06;100909.44;;;21.19;70.34
9695;BME280;4690;52.422;13.486;2022-09-09T09:06:54;100910.25;;;21.19;68.11
9695;BME280;4690;52.422;13.486;2022-09-09T09:09:50;100900.66;;;21.31;66.43
9695;BME280;4690;52.422;13.486;2022-09-09T09:12:24;100910.06;;;21.40;65.47
9695;BME280;4690;52.422;13.486;2022-09-09T09:14:51;100913.03;;;21.19;65.89
9695;BME280;4690;52.422;13.486;2022-09-09T09:17:19;100910.06;;;21.40;66.25
9695;BME280;4690;52.422;13.486;2022-09-09T09:19:48;100909.25;;;21.63;64.75
9695;BME280;4690;52.422;13.486;2022-09-09T09:22:43;100911.09;;;21.73;63.59
9695;BME280;4690;52.422;13.486;2022-09-09T09:25:19;100913.13;;;22.10;63.90
9695;BME280;4690;52.422;13.486;2022-09-09T09:28:18;100905.03;;;22.33;62.70
9695;BME280;4690;52.422;13.486;2022-09-09T09:30:54;100901.72;;;22.64;61.32
9695;BME280;4690;52.422;13.486;2022-09-09T09:35:57;100894.19;;;23.30;59.32
9695;BME280;4690;52.422;13.486;2022-09-09T09:38:27;100903.72;;;23.56;60.98
9695;BME280;4690;52.422;13.486;2022-09-09T09:40:58;100903.81;;;23.65;58.94
9695;BME280;4690;52.422;13.486;2022-09-09T09:43:32;100911.09;;;23.66;58.41
9695;BME280;4690;52.422;13.486;2022-09-09T09:45:59;100911.31;;;23.83;58.50
9695;BME280;4690;52.422;13.486;2022-09-09T09:48:27;100904.47;;;23.89;57.13
9695;BME280;4690;52.422;13.486;2022-09-09T09:51:11;100907.16;;;23.94;56.30
9695;BME280;4690;52.422;13.486;2022-09-09T09:53:39;100899.97;;;24.16;57.48
9695;BME280;4690;52.422;13.486;2022-09-09T09:56:09;100900.34;;;24.23;56.81
9695;BME280;4690;52.422;13.486;2022-09-09T09:58:56;100903.53;;;23.94;57.15
9695;BME280;4690;52.422;13.486;2022-09-09T10:01:31;100901.13;;;23.87;57.29
9695;BME280;4690;52.422;13.486;2022-09-09T10:04:16;100905.09;;;23.86;56.41
9695;BME280;4690;52.422;13.486;2022-09-09T10:06:44;100915.25;;;23.82;57.37
9695;BME280;4690;52.422;13.486;2022-09-09T10:15:38;100909.81;;;24.13;56.25
9695;BME280;4690;52.422;13.486;2022-09-09T10:22:00;100900.47;;;24.18;55.95
9695;BME280;4690;52.422;13.486;2022-09-09T10:25:04;100909.13;;;24.08;56.22
9695;BME280;4690;52.422;13.486;2022-09-09T10:31:02;100917.63;;;23.89;57.89
9695;BME280;4690;52.422;13.486;2022-09-09T10:34:05;100923.03;;;23.85;57.90
9695;BME280;4690;52.422;13.486;2022-09-09T10:36:47;100904.88;;;23.97;58.36
9695;BME280;4690;52.422;13.486;2022-09-09T10:39:37;100913.38;;;23.91;58.84
9695;BME280;4690;52.422;13.486;2022-09-09T10:42:14;100916.06;;;23.55;56.79
9695;BME280;4690;52.422;13.486;2022-09-09T10:45:05;100912.72;;;23.53;57.56
9695;BME280;4690;52.422;13.486;2022-09-09T10:48:16;100912.66;;;23.72;58.25
9695;BME280;4690;52.422;13.486;2022-09-09T10:56:21;100904.38;;;24.31;57.10
9695;BME280;4690;52.422;13.486;2022-09-09T10:59:04;100903.28;;;24.77;55.56
9695;BME280;4690;52.422;13.486;2022-09-09T11:01:41;100906.56;;;25.15;52.04
9695;BME280;4690;52.422;13.486;2022-09-09T11:04:37;100908.47;;;25.77;53.63
9695;BME280;4690;52.422;13.486;2022-09-09T11:07:10;100917.31;;;25.62;49.12
9695;BME280;4690;52.422;13.486;2022-09-09T11:09:52;100904.75;;;25.90;50.49
9695;BME280;4690;52.422;13.486;2022-09-09T11:12:22;100907.09;;;25.57;49.78
9695;BME280;4690;52.422;13.486;2022-09-09T11:17:42;100898.94;;;25.87;50.05
9695;BME280;4690;52.422;13.486;2022-09-09T11:20:13;100895.69;;;26.20;50.97
9695;BME280;4690;52.422;13.486;2022-09-09T11:23:21;100901.63;;;26.35;49.15
9695;BME280;4690;52.422;13.486;2022-09-09T11:25:55;100902.50;;;26.45;50.96
9695;BME280;4690;52.422;13.486;2022-09-09T11:34:48;100897.34;;;26.99;48.24
9695;BME280;4690;52.422;13.486;2022-09-09T11:37:30;100898.78;;;27.14;48.75
9695;BME280;4690;52.422;13.486;2022-09-09T11:40:24;100899.56;;;27.40;47.68
9695;BME280;4690;52.422;13.486;2022-09-09T11:43:18;100899.38;;;27.37;45.06
9695;BME280;4690;52.422;13.486;2022-09-09T11:45:53;100899.22;;;26.51;46.67
9695;BME280;4690;52.422;13.486;2022-09-09T11:48:43;100897.09;;;25.82;48.49
9695;BME280;4690;52.422;13.486;2022-09-09T11:51:25;100890.56;;;25.64;48.50
9695;BME280;4690;52.422;13.486;2022-09-09T11:53:58;100881.53;;;25.76;49.51
9695;BME280;4690;52.422;13.486;2022-09-09T11:56:34;100881.97;;;26.09;48.42
9695;BME280;4690;52.422;13.486;2022-09-09T11:59:04;100872.44;;;25.70;48.42
9695;BME280;4690;52.422;13.486;2022-09-09T12:01:35;100874.03;;;26.11;49.31
9695;BME280;4690;52.422;13.486;2022-09-09T12:06:49;100872.22;;;26.24;46.24
9695;BME280;4690;52.422;13.486;2022-09-09T12:11:51;100859.81;;;25.90;47.82
9695;BME280;4690;52.422;13.486;2022-09-09T12:17:24;100860.16;;;26.15;45.72
9695;BME280;4690;52.422;13.486;2022-09-09T12:20:20;100858.22;;;25.67;47.16
9695;BME280;4690;52.422;13.486;2022-09-09T12:26:22;100850.69;;;25.05;49.29
9695;BME280;4690;52.422;13.486;2022-09-09T12:32:10;100849.69;;;25.01;50.50
9695;BME280;4690;52.422;13.486;2022-09-09T12:34:53;100842.75;;;24.98;49.40
9695;BME280;4690;52.422;13.486;2022-09-09T12:37:35;100853.25;;;25.15;49.75
9695;BME280;4690;52.422;13.486;2022-09-09T12:42:44;100840.97;;;25.42;47.86
9695;BME280;4690;52.422;13.486;2022-09-09T12:45:25;100840.28;;;25.37;47.83
9695;BME280;4690;52.422;13.486;2022-09-09T12:48:08;100836.47;;;25.24;47.61
9695;BME280;4690;52.422;13.486;2022-09-09T12:50:44;100831.72;;;25.42;49.74
9695;BME280;4690;52.422;13.486;2022-09-09T12:53:24;100839.09;;;25.69;48.90
9695;BME280;4690;52.422;13.486;2022-09-09T12:56:07;100827.25;;;25.32;46.86
9695;BME280;4690;52.422;13.486;2022-09-09T12:58:36;100829.53;;;25.21;47.66
9695;BME280;4690;52.422;13.486;2022-09-09T13:01:05;100839.66;;;25.40;49.55
9695;BME280;4690;52.422;13.486;2022-09-09T13:03:33;100843.44;;;25.35;47.37
9695;BME280;4690;52.422;13.486;2022-09-09T13:06:13;100843.72;;;25.25;47.14
9695;BME280;4690;52.422;13.486;2022-09-09T13:08:39;100843.41;;;25.26;47.15
9695;BME280;4690;52.422;13.486;2022-09-09T13:11:15;100850.81;;;25.22;47.55
9695;BME280;4690;52.422;13.486;2022-09-09T13:13:43;100845.34;;;25.17;47.79
9695;BME280;4690;52.422;13.486;2022-09-09T13:16:41;100842.22;;;25.19;47.02
9695;BME280;4690;52.422;13.486;2022-09-09T13:19:16;100845.13;;;25.14;47.46
9695;BME280;4690;52.422;13.486;2022-09-09T13:21:42;100844.03;;;25.15;48.75
9695;BME280;4690;52.422;13.486;2022-09-09T13:24:40;100830.75;;;25.07;47.96
9695;BME280;4690;52.422;13.486;2022-09-09T13:27:35;100828.25;;;25.05;48.79
9695;BME280;4690;52.422;13.486;2022-09-09T13:33:21;100824.06;;;25.16;49.10
9695;BME280;4690;52.422;13.486;2022-09-09T13:35:57;100819.06;;;25.13;49.37
9695;BME280;4690;52.422;13.486;2022-09-09T13:38:23;100822.00;;;25.08;49.68
9695;BME280;4690;52.422;13.486;2022-09-09T13:41:09;100828.94;;;25.11;50.71
9695;BME280;4690;52.422;13.486;2022-09-09T13:43:54;100825.16;;;25.07;49.94
9695;BME280;4690;52.422;13.486;2022-09-09T13:46:39;100814.75;;;25.07;50.93
9695;BME280;4690;52.422;13.486;2022-09-09T13:51:44;100820.16;;;24.95;51.21
9695;BME280;4690;52.422;13.486;2022-09-09T13:54:15;100828.25;;;24.74;50.82
9695;BME280;4690;52.422;13.486;2022-09-09T13:56:43;100827.91;;;24.67;50.85
9695;BME280;4690;52.422;13.486;2022-09-09T13:59:18;100824.88;;;24.63;51.39
9695;BME280;4690;52.422;13.486;2022-09-09T14:01:45;100821.91;;;24.59;51.64
9695;BME280;4690;52.422;13.486;2022-09-09T14:04:12;100826.00;;;24.53;50.99
9695;BME280;4690;52.422;13.486;2022-09-09T14:06:39;100825.47;;;24.51;51.64
9695;BME280;4690;52.422;13.486;2022-09-09T14:09:07;100824.94;;;24.49;53.77
9695;BME280;4690;52.422;13.486;2022-09-09T14:11:33;100830.47;;;24.41;54.70
9695;BME280;4690;52.422;13.486;2022-09-09T14:13:59;100831.56;;;24.31;53.87
9695;BME280;4690;52.422;13.486;2022-09-09T14:16:26;100832.63;;;24.21;55.71
9695;BME280;4690;52.422;13.486;2022-09-09T14:18:53;100827.97;;;24.16;57.57
9695;BME280;4690;52.422;13.486;2022-09-09T14:21:19;100832.25;;;24.14;58.42
9695;BME280;4690;52.422;13.486;2022-09-09T14:23:44;100821.03;;;24.14;58.98
9695;BME280;4690;52.422;13.486;2022-09-09T14:26:10;100820.00;;;24.10;58.81
9695;BME280;4690;52.422;13.486;2022-09-09T14:28:36;100823.66;;;24.10;59.33
9695;BME280;4690;52.422;13.486;2022-09-09T14:31:03;100823.03;;;24.13;60.33
9695;BME280;4690;52.422;13.486;2022-09-09T14:33:30;100812.13;;;24.12;59.45
9695;BME280;4690;52.422;13.486;2022-09-09T14:36:01;100819.19;;;24.09;58.23
9695;BME280;4690;52.422;13.486;2022-09-09T14:38:36;100818.88;;;24.11;58.16
9695;BME280;4690;52.422;13.486;2022-09-09T14:41:06;100823.63;;;23.88;56.72
9695;BME280;4690;52.422;13.486;2022-09-09T14:43:32;100811.03;;;23.99;57.38
9695;BME280;4690;52.422;13.486;2022-09-09T14:46:08;100815.25;;;24.10;57.70
9695;BME280;4690;52.422;13.486;2022-09-09T14:48:35;100823.06;;;24.00;57.44
9695;BME280;4690;52.422;13.486;2022-09-09T14:51:18;100827.84;;;23.99;57.60
9695;BME280;4690;52.422;13.486;2022-09-09T14:53:46;100813.59;;;24.09;58.61
9695;BME280;4690;52.422;13.486;2022-09-09T14:56:18;100810.47;;;24.11;57.66
9695;BME280;4690;52.422;13.486;2022-09-09T14:58:45;100805.06;;;24.14;56.98
9695;BME280;4690;52.422;13.486;2022-09-09T15:01:17;100813.97;;;24.16;57.00
9695;BME280;4690;52.422;13.486;2022-09-09T15:03:50;100825.50;;;24.15;57.82
9695;BME280;4690;52.422;13.486;2022-09-09T15:06:17;100826.66;;;24.14;58.48
9695;BME280;4690;52.422;13.486;2022-09-09T15:08:44;100826.13;;;24.12;58.31
9695;BME280;4690;52.422;13.486;2022-09-09T15:11:12;100825.81;;;24.13;58.00
9695;BME280;4690;52.422;13.486;2022-09-09T15:13:41;100820.72;;;24.15;58.41
9695;BME280;4690;52.422;13.486;2022-09-09T15:16:14;100819.78;;;24.20;58.86
9695;BME280;4690;52.422;13.486;2022-09-09T15:18:41;100809.47;;;24.29;58.32
9695;BME280;4690;52.422;13.486;2022-09-09T15:21:13;100813.66;;;24.41;58.68
9695;BME280;4690;52.422;13.486;2022-09-09T15:23:39;100818.59;;;24.57;56.50